Time;durP1;ratioP1;P1;durP2;ratioP2;P2;SDS_P1;SDS_P2;PMS_P1;PMS_P2;Temp;Humidity;BMP_temperature;BMP_pressure;BME280_temperature;BME280_humidity;BME280_pressure;Samples;Min_cycle;Max_cycle;Signal;HPM_P1;HPM_P2
2023/12/23 00:00:00;;;;;;;6.20;2.90;;;;;;;1.51;100.00;96435.42;109607;1251;60005;-74
2023/12/23 00:02:27;;;;;;;12.40;4.00;;;;;;;1.56;100.00;96431.27;109507;1251;65263;-74
2023/12/23 00:04:53;;;;;;;5.90;2.60;;;;;;;1.58;100.00;96439.14;109574;1251;59898;-74
2023/12/23 00:07:20;;;;;;;8.20;3.60;;;;;;;1.60;100.00;96441.12;109598;1253;59639;-74
2023/12/23 00:09:46;;;;;;;5.90;2.50;;;;;;;1.59;100.00;96440.49;109612;1250;66936;-75
2023/12/23 00:12:13;;;;;;;6.20;2.90;;;;;;;1.58;100.00;96447.78;109568;1251;60990;-74
2023/12/23 00:14:39;;;;;;;7.30;3.70;;;;;;;1.58;100.00;96457.39;109576;1251;65086;-74
2023/12/23 00:17:06;;;;;;;8.20;3.80;;;;;;;1.57;100.00;96447.84;108777;1251;1002372;-74
2023/12/23 00:19:32;;;;;;;8.30;3.40;;;;;;;1.56;100.00;96435.65;109579;1251;59845;-74
2023/12/23 00:21:59;;;;;;;7.00;2.60;;;;;;;1.56;100.00;96435.28;109577;1251;67977;-75
2023/12/23 00:24:28;;;;;;;4.40;1.70;;;;;;;1.61;100.00;96450.54;109617;1251;61246;-75
2023/12/23 00:26:57;;;;;;;3.70;1.70;;;;;;;1.64;100.00;96467.60;109563;1254;64042;-74
2023/12/23 00:29:25;;;;;;;6.60;2.00;;;;;;;1.68;100.00;96471.66;109577;1251;59745;-74
2023/12/23 00:31:51;;;;;;;7.40;1.70;;;;;;;1.71;100.00;96467.95;109590;1251;59707;-74
2023/12/23 00:34:18;;;;;;;7.10;2.00;;;;;;;1.78;99.81;96472.76;109583;1250;66811;-74
2023/12/23 00:36:45;;;;;;;4.60;1.20;;;;;;;1.82;100.00;96474.23;109597;1250;61214;-73
2023/12/23 00:39:12;;;;;;;6.40;1.90;;;;;;;1.83;99.72;96472.86;109570;1251;65035;-74
2023/12/23 00:41:39;;;;;;;3.20;1.60;;;;;;;1.85;99.56;96480.77;109546;1251;59910;-74
2023/12/23 00:44:06;;;;;;;5.20;1.90;;;;;;;1.86;99.47;96485.77;109573;1251;59812;-74
2023/12/23 00:46:32;;;;;;;4.60;1.70;;;;;;;1.88;98.59;96488.84;109579;1251;65556;-74
2023/12/23 00:48:59;;;;;;;4.00;1.20;;;;;;;1.89;99.03;96485.93;109629;1250;60065;-74
2023/12/23 00:51:26;;;;;;;3.40;1.70;;;;;;;1.88;98.88;96484.56;109580;1251;64333;-73
2023/12/23 00:53:52;;;;;;;4.30;1.80;;;;;;;1.88;98.92;96489.36;109602;1251;59794;-74
2023/12/23 00:56:20;;;;;;;3.80;1.60;;;;;;;1.84;99.36;96489.12;109581;1251;59692;-74
2023/12/23 00:58:47;;;;;;;5.20;2.20;;;;;;;1.79;98.69;96495.05;109633;1250;67804;-73
2023/12/23 01:01:14;;;;;;;3.00;1.30;;;;;;;1.76;97.60;96494.24;109595;1251;60050;-73
2023/12/23 01:03:41;;;;;;;2.90;1.40;;;;;;;1.75;93.80;96490.08;109402;1251;63986;-74
2023/12/23 01:06:08;;;;;;;4.20;0.90;;;;;;;1.79;91.65;96495.98;109552;1251;59805;-74
2023/12/23 01:08:34;;;;;;;1.40;0.90;;;;;;;1.80;91.94;96497.30;109609;1251;59733;-74
2023/12/23 01:11:01;;;;;;;2.30;1.10;;;;;;;1.78;91.01;96502.66;109596;1251;65575;-73
2023/12/23 01:13:28;;;;;;;3.50;1.30;;;;;;;1.77;89.97;96501.03;109583;1251;61182;-73
2023/12/23 01:15:55;;;;;;;4.80;1.10;;;;;;;1.76;90.89;96496.67;109568;1251;65146;-74
2023/12/23 01:18:21;;;;;;;3.40;1.00;;;;;;;1.72;91.35;96493.29;109570;1251;59785;-74
2023/12/23 01:20:48;;;;;;;4.10;1.30;;;;;;;1.67;92.07;96491.73;109591;1251;59901;-74
2023/12/23 01:23:15;;;;;;;6.10;1.40;;;;;;;1.62;91.95;96493.45;109414;1251;66850;-73
2023/12/23 01:25:41;;;;;;;2.60;1.50;;;;;;;1.61;91.67;96496.86;109616;1250;61048;-74
2023/12/23 01:28:08;;;;;;;1.50;1.10;;;;;;;1.60;91.84;96497.66;109402;1251;64163;-74
2023/12/23 01:30:34;;;;;;;4.90;1.30;;;;;;;1.59;91.89;96501.05;109597;1251;59781;-73
2023/12/23 01:33:01;;;;;;;3.90;1.50;;;;;;;1.59;92.01;96501.09;109536;1251;59739;-74
2023/12/23 01:35:27;;;;;;;4.90;1.40;;;;;;;1.57;92.20;96497.84;109567;1251;67511;-74
2023/12/23 01:37:54;;;;;;;3.90;1.60;;;;;;;1.57;92.64;96501.58;109611;1251;61130;-74
2023/12/23 01:40:20;;;;;;;6.60;2.50;;;;;;;1.56;92.93;96494.45;109265;1251;65082;-74
2023/12/23 01:42:47;;;;;;;6.50;2.30;;;;;;;1.56;93.39;96492.20;109582;1251;59762;-75
2023/12/23 01:45:14;;;;;;;5.00;2.30;;;;;;;1.54;93.82;96493.16;109606;1251;59725;-73
2023/12/23 01:47:43;;;;;;;6.30;3.10;;;;;;;1.53;94.15;96494.83;109591;1251;67997;-74
2023/12/23 01:50:10;;;;;;;6.80;2.80;;;;;;;1.52;94.60;96491.71;109603;1251;61121;-75
2023/12/23 01:52:40;;;;;;;6.70;2.90;;;;;;;1.53;94.86;96492.34;109547;1251;65014;-74
2023/12/23 01:55:08;;;;;;;7.70;3.00;;;;;;;1.55;95.32;96496.96;109329;1251;59767;-74
2023/12/23 01:57:35;;;;;;;8.40;3.10;;;;;;;1.55;95.82;96500.79;109576;1251;59976;-74
2023/12/23 02:00:03;;;;;;;8.50;3.50;;;;;;;1.56;96.37;96514.17;109549;1251;67797;-74
2023/12/23 02:02:30;;;;;;;6.40;3.10;;;;;;;1.57;96.92;96522.52;109593;1251;60142;-75
2023/12/23 02:04:57;;;;;;;4.40;2.40;;;;;;;1.57;97.30;96526.17;109581;1251;64128;-74
2023/12/23 02:07:24;;;;;;;2.20;1.40;;;;;;;1.61;97.38;96527.16;109537;1251;59841;-74
2023/12/23 02:09:51;;;;;;;3.80;1.10;;;;;;;1.65;99.35;96535.41;109634;1251;59798;-74
2023/12/23 02:12:31;;;;;;;2.90;1.00;;;;;;;1.65;100.00;96536.48;109586;1251;66758;-74
2023/12/23 02:15:07;;;;;;;3.30;0.80;;;;;;;1.62;100.00;96544.38;109539;1251;60013;-74
2023/12/23 02:17:34;;;;;;;2.30;1.00;;;;;;;1.58;100.00;96548.36;109604;1251;64033;-75
2023/12/23 02:20:00;;;;;;;1.20;0.80;;;;;;;1.53;100.00;96546.27;109641;1251;59984;-74
2023/12/23 02:22:27;;;;;;;2.30;1.10;;;;;;;1.48;100.00;96546.09;109593;1251;59863;-74
2023/12/23 02:24:54;;;;;;;3.40;0.90;;;;;;;1.43;100.00;96538.94;109585;1251;67909;-74
2023/12/23 02:27:29;;;;;;;2.30;0.60;;;;;;;1.37;100.00;96539.34;109572;1251;60018;-74
2023/12/23 02:29:58;;;;;;;2.20;1.00;;;;;;;1.30;100.00;96543.79;109570;1251;65256;-74
2023/12/23 02:32:26;;;;;;;2.70;1.20;;;;;;;1.25;100.00;96542.62;109590;1251;59889;-74
2023/12/23 02:34:53;;;;;;;4.80;1.50;;;;;;;1.22;100.00;96550.72;109600;1251;59789;-73
2023/12/23 02:37:20;;;;;;;6.00;1.60;;;;;;;1.20;100.00;96551.35;108044;1251;1002648;-73
2023/12/23 02:39:46;;;;;;;2.40;2.00;;;;;;;1.19;100.00;96546.00;109560;1250;59838;-74
2023/12/23 02:42:13;;;;;;;2.90;1.40;;;;;;;1.15;100.00;96546.23;109576;1251;64040;-73
2023/12/23 02:44:39;;;;;;;5.30;2.60;;;;;;;1.06;100.00;96526.10;109564;1251;59754;-74
2023/12/23 02:47:06;;;;;;;3.30;2.00;;;;;;;0.95;100.00;96520.70;109609;1251;59795;-73
2023/12/23 02:49:33;;;;;;;3.00;1.90;;;;;;;0.84;100.00;96524.38;109577;1251;67825;-74
2023/12/23 02:51:59;;;;;;;5.10;1.90;;;;;;;0.77;100.00;96543.24;109617;1250;59838;-74
2023/12/23 02:54:26;;;;;;;5.40;2.00;;;;;;;0.72;100.00;96562.98;109549;1251;65040;-74
2023/12/23 02:56:52;;;;;;;2.20;1.40;;;;;;;0.71;100.00;96570.38;109467;1251;60024;-74
2023/12/23 02:59:19;;;;;;;3.90;1.60;;;;;;;0.71;100.00;96571.61;109571;1251;59770;-74
2023/12/23 03:01:45;;;;;;;2.40;1.30;;;;;;;0.73;100.00;96571.83;109589;1251;66813;-74
2023/12/23 03:04:12;;;;;;;5.10;1.80;;;;;;;0.75;100.00;96562.61;109578;1251;60358;-74
2023/12/23 03:06:38;;;;;;;1.50;0.90;;;;;;;0.77;100.00;96568.92;109599;1251;64159;-74
2023/12/23 03:09:05;;;;;;;3.40;1.30;;;;;;;0.79;100.00;96575.23;109535;1252;59788;-74
2023/12/23 03:11:32;;;;;;;2.30;1.30;;;;;;;0.81;100.00;96581.95;109597;1251;60020;-74
2023/12/23 03:14:00;;;;;;;3.90;1.20;;;;;;;0.80;100.00;96578.52;109581;1251;66978;-73
2023/12/23 03:16:33;;;;;;;3.00;1.40;;;;;;;0.78;100.00;96585.65;109609;1253;60212;-74
2023/12/23 03:19:00;;;;;;;2.50;1.40;;;;;;;0.75;100.00;96590.20;109411;1251;65270;-74
2023/12/23 03:21:27;;;;;;;1.70;1.60;;;;;;;0.74;100.00;96595.89;109549;1251;59746;-74
2023/12/23 03:23:53;;;;;;;1.90;1.30;;;;;;;0.74;100.00;96608.30;109542;1251;59822;-73
2023/12/23 03:26:20;;;;;;;2.00;1.30;;;;;;;0.73;100.00;96614.09;109594;1251;66815;-73
2023/12/23 03:28:47;;;;;;;1.60;1.30;;;;;;;0.73;100.00;96618.48;109592;1251;61324;-74
2023/12/23 03:31:13;;;;;;;1.80;1.50;;;;;;;0.73;100.00;96622.88;109386;1251;64064;-75
2023/12/23 03:33:40;;;;;;;1.60;1.20;;;;;;;0.73;100.00;96620.60;109528;1251;59770;-74
2023/12/23 03:36:07;;;;;;;2.80;1.90;;;;;;;0.72;100.00;96622.73;109608;1251;59820;-73
2023/12/23 03:38:34;;;;;;;2.30;1.50;;;;;;;0.71;100.00;96630.14;109260;1251;67535;-73
2023/12/23 03:41:00;;;;;;;2.30;1.70;;;;;;;0.69;100.00;96630.60;109524;1251;61025;-74
2023/12/23 03:43:27;;;;;;;2.70;1.60;;;;;;;0.68;100.00;96633.14;108634;1251;1002730;-74
2023/12/23 03:45:53;;;;;;;2.90;1.50;;;;;;;0.66;100.00;96637.44;109528;1251;59851;-73
2023/12/23 03:48:20;;;;;;;2.70;2.10;;;;;;;0.64;100.00;96638.94;109636;1251;59709;-73
2023/12/23 03:50:46;;;;;;;2.50;1.60;;;;;;;0.64;100.00;96648.61;109537;1251;66897;-73
2023/12/23 03:53:14;;;;;;;2.80;1.60;;;;;;;0.64;100.00;96661.19;109494;1251;60125;-74
2023/12/23 03:55:41;;;;;;;2.00;1.30;;;;;;;0.65;100.00;96658.31;109461;1251;133042;-74
2023/12/23 03:58:08;;;;;;;3.50;1.50;;;;;;;0.66;100.00;96655.42;109521;1251;59747;-73
2023/12/23 04:00:34;;;;;;;2.00;1.10;;;;;;;0.66;100.00;96658.05;109584;1251;59964;-75
2023/12/23 04:03:02;;;;;;;0.90;0.70;;;;;;;0.66;100.00;96664.70;109576;1250;66910;-74
2023/12/23 04:05:28;;;;;;;2.40;0.90;;;;;;;0.68;100.00;96671.95;109601;1251;60996;-75
2023/12/23 04:07:55;;;;;;;2.00;1.10;;;;;;;0.68;100.00;96669.28;109522;1251;65075;-76
2023/12/23 04:10:21;;;;;;;3.30;1.80;;;;;;;0.69;100.00;96670.98;109516;1255;59833;-74
2023/12/23 04:12:48;;;;;;;1.70;1.30;;;;;;;0.69;100.00;96676.43;109644;1251;59835;-75
2023/12/23 04:15:14;;;;;;;2.30;1.40;;;;;;;0.67;100.00;96672.85;109554;1251;66769;-75
2023/12/23 04:17:42;;;;;;;1.10;1.00;;;;;;;0.63;100.00;96672.07;109544;1251;60320;-75
2023/12/23 04:20:09;;;;;;;2.60;1.20;;;;;;;0.60;100.00;96683.44;109557;1251;63978;-74
2023/12/23 04:22:36;;;;;;;1.80;1.10;;;;;;;0.57;100.00;96689.39;109501;1251;59860;-75
2023/12/23 04:25:03;;;;;;;2.40;1.30;;;;;;;0.56;100.00;96695.59;109582;1251;59914;-74
2023/12/23 04:27:29;;;;;;;2.40;1.50;;;;;;;0.56;100.00;96700.15;109556;1251;68343;-74
2023/12/23 04:29:56;;;;;;;4.80;1.20;;;;;;;0.57;100.00;96710.00;109560;1251;60071;-74
2023/12/23 04:32:22;;;;;;;1.90;1.70;;;;;;;0.60;100.00;96715.42;109427;1251;63985;-74
2023/12/23 04:34:49;;;;;;;2.90;2.10;;;;;;;0.63;100.00;96725.55;109557;1251;59992;-76
2023/12/23 04:37:15;;;;;;;2.20;1.40;;;;;;;0.64;100.00;96736.49;109588;1251;59765;-74
2023/12/23 04:39:42;;;;;;;2.20;1.40;;;;;;;0.64;100.00;96743.28;109541;1251;67907;-74
2023/12/23 04:42:09;;;;;;;2.60;1.20;;;;;;;0.65;100.00;96761.73;109568;1251;61497;-75
2023/12/23 04:44:35;;;;;;;1.60;1.20;;;;;;;0.65;100.00;96767.85;109578;1251;65107;-74
2023/12/23 04:47:02;;;;;;;1.70;1.40;;;;;;;0.64;100.00;96772.27;109562;1251;59964;-74
2023/12/23 04:49:29;;;;;;;2.10;1.30;;;;;;;0.65;100.00;96783.08;109407;1251;59929;-74
2023/12/23 04:51:55;;;;;;;2.60;1.20;;;;;;;0.67;100.00;96787.88;109559;1251;67971;-74
2023/12/23 04:54:22;;;;;;;6.20;1.20;;;;;;;0.68;100.00;96795.98;109565;1251;61121;-75
2023/12/23 04:56:48;;;;;;;2.30;0.90;;;;;;;0.68;100.00;96804.73;109590;1251;64164;-74
2023/12/23 04:59:15;;;;;;;1.60;1.10;;;;;;;0.70;100.00;96814.21;109529;1251;60191;-74
2023/12/23 05:01:41;;;;;;;4.20;1.00;;;;;;;0.71;100.00;96827.96;109543;1253;59788;-74
2023/12/23 05:04:08;;;;;;;2.20;1.10;;;;;;;0.72;100.00;96845.59;109634;1251;67759;-74
2023/12/23 05:06:34;;;;;;;1.40;1.10;;;;;;;0.74;100.00;96851.89;109387;1251;60208;-73
2023/12/23 05:09:02;;;;;;;1.60;1.10;;;;;;;0.75;100.00;96869.30;109587;1251;64063;-73
2023/12/23 05:11:29;;;;;;;2.80;1.00;;;;;;;0.76;100.00;96877.11;109222;1251;59873;-74
2023/12/23 05:13:55;;;;;;;1.30;0.80;;;;;;;0.78;100.00;96881.90;109547;1251;59686;-73
2023/12/23 05:16:22;;;;;;;1.10;0.80;;;;;;;0.80;100.00;96884.06;109621;1251;65924;-74
2023/12/23 05:18:48;;;;;;;2.70;0.80;;;;;;;0.82;100.00;96885.33;109239;1256;59874;-74
2023/12/23 05:21:16;;;;;;;3.00;1.10;;;;;;;0.81;100.00;96888.00;109560;1251;65512;-74
2023/12/23 05:23:42;;;;;;;1.60;0.90;;;;;;;0.78;100.00;96897.61;109547;1251;59775;-74
2023/12/23 05:26:09;;;;;;;1.00;0.70;;;;;;;0.76;100.00;96904.05;109538;1251;59830;-74
2023/12/23 05:28:35;;;;;;;3.00;0.90;;;;;;;0.74;100.00;96912.02;109610;1251;66716;-73
2023/12/23 05:31:02;;;;;;;0.60;0.60;;;;;;;0.72;100.00;96918.45;109599;1251;61154;-73
2023/12/23 05:33:28;;;;;;;2.60;1.00;;;;;;;0.70;100.00;96918.59;109563;1251;65144;-73
2023/12/23 05:35:55;;;;;;;3.30;1.30;;;;;;;0.68;100.00;96928.45;109562;1251;59793;-73
2023/12/23 05:38:22;;;;;;;2.30;0.80;;;;;;;0.66;100.00;96942.88;109555;1251;59707;-73
2023/12/23 05:40:48;;;;;;;4.10;0.70;;;;;;;0.64;100.00;96953.35;109601;1251;66781;-73
2023/12/23 05:43:15;;;;;;;2.00;0.90;;;;;;;0.64;100.00;96963.13;109594;1251;61025;-73
2023/12/23 05:45:41;;;;;;;0.90;0.80;;;;;;;0.61;100.00;96970.77;109540;1251;65222;-73
2023/12/23 05:48:08;;;;;;;2.00;0.70;;;;;;;0.61;100.00;96980.08;109563;1251;59738;-73
2023/12/23 05:50:34;;;;;;;1.60;0.70;;;;;;;0.61;100.00;96988.79;109582;1251;59889;-74
2023/12/23 05:53:01;;;;;;;3.20;0.90;;;;;;;0.62;100.00;96992.40;109611;1251;67835;-73
2023/12/23 05:55:28;;;;;;;1.90;0.70;;;;;;;0.63;100.00;96998.10;109585;1252;60125;-74
2023/12/23 05:57:54;;;;;;;2.50;0.90;;;;;;;0.64;100.00;97002.11;109380;1254;62998;-73
2023/12/23 06:00:21;;;;;;;1.80;0.70;;;;;;;0.63;100.00;97010.89;109566;1251;59854;-74
2023/12/23 06:02:48;;;;;;;3.90;1.00;;;;;;;0.61;100.00;97008.54;109625;1251;59835;-75
2023/12/23 06:05:14;;;;;;;1.90;0.40;;;;;;;0.60;100.00;97021.20;109561;1252;65613;-73
2023/12/23 06:07:41;;;;;;;2.20;0.90;;;;;;;0.59;100.00;97023.48;109564;1251;60110;-75
2023/12/23 06:10:08;;;;;;;1.90;0.60;;;;;;;0.58;100.00;97037.55;109598;1251;64013;-75
2023/12/23 06:12:34;;;;;;;3.70;0.80;;;;;;;0.56;100.00;97042.38;109563;1251;59818;-75
2023/12/23 06:15:01;;;;;;;1.40;0.90;;;;;;;0.52;100.00;97045.42;109555;1251;60001;-74
2023/12/23 06:17:27;;;;;;;3.70;1.00;;;;;;;0.45;100.00;97051.74;109579;1251;66720;-74
2023/12/23 06:19:54;;;;;;;1.50;0.90;;;;;;;0.38;100.00;97058.11;109559;1251;60083;-74
2023/12/23 06:22:21;;;;;;;2.10;1.10;;;;;;;0.33;100.00;97062.76;109586;1251;65043;-74
2023/12/23 06:24:47;;;;;;;1.80;0.90;;;;;;;0.32;100.00;97070.89;109385;1251;59798;-74
2023/12/23 06:27:14;;;;;;;3.60;1.50;;;;;;;0.28;100.00;97080.33;109567;1251;59655;-74
2023/12/23 06:29:40;;;;;;;4.20;0.90;;;;;;;0.24;100.00;97086.17;109576;1251;68056;-75
2023/12/23 06:32:07;;;;;;;2.10;1.10;;;;;;;0.19;100.00;97082.20;109566;1251;60239;-75
2023/12/23 06:34:33;;;;;;;1.40;0.80;;;;;;;0.15;100.00;97083.15;109570;1252;65195;-75
2023/12/23 06:37:00;;;;;;;1.20;1.10;;;;;;;0.12;100.00;97090.30;109570;1251;60015;-73
2023/12/23 06:39:26;;;;;;;3.10;1.00;;;;;;;0.11;100.00;97101.20;109593;1251;59764;-74
2023/12/23 06:41:53;;;;;;;1.90;1.00;;;;;;;0.11;100.00;97109.22;109509;1251;66901;-74
2023/12/23 06:44:20;;;;;;;2.20;1.00;;;;;;;0.09;100.00;97119.63;109552;1251;61078;-74
2023/12/23 06:46:47;;;;;;;2.90;0.90;;;;;;;0.06;100.00;97129.91;109250;1251;65115;-75
2023/12/23 06:49:17;;;;;;;2.20;1.20;;;;;;;0.05;100.00;97136.77;109577;1251;59914;-75
2023/12/23 06:51:44;;;;;;;3.30;0.90;;;;;;;0.05;100.00;97135.60;109564;1251;59880;-74
2023/12/23 06:54:11;;;;;;;1.90;0.90;;;;;;;0.03;100.00;97138.67;109588;1251;66736;-74
2023/12/23 06:56:37;;;;;;;2.50;1.30;;;;;;;-0.01;100.00;97146.02;109568;1251;61048;-75
2023/12/23 06:59:09;;;;;;;3.00;1.10;;;;;;;-0.03;100.00;97150.14;109548;1251;65347;-75
2023/12/23 07:01:37;;;;;;;1.30;1.10;;;;;;;-0.03;100.00;97152.05;109520;1251;59824;-75
2023/12/23 07:04:05;;;;;;;1.40;1.00;;;;;;;0.02;100.00;97158.24;109617;1251;59783;-75
2023/12/23 07:06:32;;;;;;;0.90;0.80;;;;;;;0.09;100.00;97164.70;109568;1251;66809;-75
2023/12/23 07:08:58;;;;;;;2.00;1.10;;;;;;;0.14;100.00;97164.25;109598;1251;60017;-76
2023/12/23 07:11:25;;;;;;;2.80;1.10;;;;;;;0.16;100.00;97164.81;109572;1251;65216;-75
2023/12/23 07:13:51;;;;;;;0.50;0.50;;;;;;;0.18;100.00;97168.58;109577;1251;59832;-74
2023/12/23 07:16:18;;;;;;;2.70;0.90;;;;;;;0.19;100.00;97163.77;109515;1251;59891;-74
2023/12/23 07:18:44;;;;;;;1.80;0.70;;;;;;;0.20;100.00;97168.98;109506;1252;66822;-74
2023/12/23 07:21:12;;;;;;;1.60;0.70;;;;;;;0.21;100.00;97178.35;109546;1251;60179;-75
2023/12/23 07:23:38;;;;;;;1.30;0.70;;;;;;;0.22;100.00;97178.67;109556;1251;64710;-74
2023/12/23 07:26:05;;;;;;;2.50;0.90;;;;;;;0.22;100.00;97179.69;109547;1251;60004;-74
2023/12/23 07:28:32;;;;;;;1.40;0.60;;;;;;;0.24;100.00;97191.13;109561;1251;59752;-75
2023/12/23 07:30:58;;;;;;;1.40;1.10;;;;;;;0.28;100.00;97194.76;109583;1251;66789;-76
2023/12/23 07:33:25;;;;;;;2.80;1.10;;;;;;;0.30;100.00;97193.23;109603;1251;61058;-74
2023/12/23 07:35:52;;;;;;;2.80;1.00;;;;;;;0.36;100.00;97197.98;109543;1251;71780;-74
2023/12/23 07:38:18;;;;;;;1.90;0.80;;;;;;;0.41;100.00;97198.92;109546;1251;59855;-74
2023/12/23 07:40:45;;;;;;;1.20;0.60;;;;;;;0.47;100.00;97195.99;109568;1251;59722;-73
2023/12/23 07:43:12;;;;;;;2.60;0.70;;;;;;;0.50;100.00;97200.34;109584;1251;67797;-74
2023/12/23 07:45:38;;;;;;;2.00;1.00;;;;;;;0.55;100.00;97202.67;109552;1251;61432;-79
2023/12/23 07:48:05;;;;;;;0.70;0.60;;;;;;;0.62;100.00;97203.35;109323;1254;64809;-75
2023/12/23 07:50:31;;;;;;;1.10;0.50;;;;;;;0.64;100.00;97201.63;108561;1254;1002888;-73
2023/12/23 07:52:58;;;;;;;1.30;0.60;;;;;;;0.63;100.00;97199.44;109328;1254;59956;-77
2023/12/23 07:55:26;;;;;;;1.20;0.80;;;;;;;0.65;99.96;97203.73;109372;1254;66712;-77
2023/12/23 07:57:52;;;;;;;3.30;0.90;;;;;;;0.69;100.00;97204.55;109337;1254;61446;-75
2023/12/23 08:00:19;;;;;;;1.50;1.00;;;;;;;0.72;100.00;97206.10;109306;1254;65059;-76
2023/12/23 08:02:46;;;;;;;2.00;0.90;;;;;;;0.76;100.00;97200.82;109331;1254;59798;-75
2023/12/23 08:05:13;;;;;;;2.10;0.90;;;;;;;0.75;100.00;97195.11;109337;1254;60005;-76
2023/12/23 08:07:42;;;;;;;3.30;1.10;;;;;;;0.75;100.00;97194.20;109316;1254;67865;-76
2023/12/23 08:10:08;;;;;;;2.10;0.80;;;;;;;0.76;100.00;97191.73;109142;1254;61443;-76
2023/12/23 08:12:35;;;;;;;3.60;1.50;;;;;;;0.76;100.00;97187.56;109351;1254;65175;-75
2023/12/23 08:15:02;;;;;;;1.70;0.90;;;;;;;0.74;100.00;97183.44;109289;1254;59870;-75
2023/12/23 08:17:28;;;;;;;3.70;1.40;;;;;;;0.75;100.00;97183.08;109322;1254;59878;-76
2023/12/23 08:19:55;;;;;;;3.20;1.20;;;;;;;0.76;100.00;97180.73;109502;1251;68281;-75
2023/12/23 08:22:21;;;;;;;3.70;1.40;;;;;;;0.77;100.00;97183.45;109564;1251;61047;-74
2023/12/23 08:24:48;;;;;;;2.10;0.90;;;;;;;0.79;100.00;97188.59;109558;1251;65039;-75
2023/12/23 08:27:14;;;;;;;4.30;0.90;;;;;;;0.82;100.00;97191.20;109499;1251;59769;-75
2023/12/23 08:29:41;;;;;;;2.60;1.50;;;;;;;0.86;100.00;97198.48;109554;1251;59897;-75
2023/12/23 08:32:08;;;;;;;3.70;1.00;;;;;;;0.88;100.00;97200.46;109553;1251;76603;-76
2023/12/23 08:34:34;;;;;;;1.90;1.00;;;;;;;0.87;100.00;97192.48;109379;1251;60091;-74
2023/12/23 08:37:01;;;;;;;2.00;1.00;;;;;;;0.85;100.00;97199.61;109573;1251;65364;-74
2023/12/23 08:39:27;;;;;;;1.60;0.90;;;;;;;0.82;100.00;97199.24;109552;1251;59811;-75
2023/12/23 08:41:54;;;;;;;2.30;1.30;;;;;;;0.81;100.00;97200.92;109556;1251;60025;-74
2023/12/23 08:44:21;;;;;;;2.20;1.20;;;;;;;0.81;100.00;97198.98;109509;1251;68105;-75
2023/12/23 08:46:47;;;;;;;2.60;1.00;;;;;;;0.85;100.00;97201.36;109639;1251;59925;-75
2023/12/23 08:49:14;;;;;;;4.40;2.40;;;;;;;0.89;100.00;97202.36;109561;1251;64232;-74
2023/12/23 08:51:40;;;;;;;4.10;1.60;;;;;;;0.94;100.00;97204.52;109605;1251;59745;-74
2023/12/23 08:54:07;;;;;;;2.30;1.40;;;;;;;1.00;100.00;97196.64;109546;1251;59939;-76
2023/12/23 08:56:34;;;;;;;2.80;1.50;;;;;;;1.07;100.00;97196.40;109545;1251;66913;-75
2023/12/23 08:59:00;;;;;;;2.20;1.00;;;;;;;1.15;100.00;97195.29;109604;1250;60171;-75
2023/12/23 09:01:27;;;;;;;2.90;1.30;;;;;;;1.21;100.00;97205.23;109543;1251;65195;-76
2023/12/23 09:03:53;;;;;;;2.50;0.90;;;;;;;1.27;100.00;97210.65;109547;1251;59755;-78
2023/12/23 09:06:20;;;;;;;3.40;1.40;;;;;;;1.32;100.00;97207.23;109588;1251;59837;-74
2023/12/23 09:08:46;;;;;;;2.00;0.80;;;;;;;1.37;100.00;97209.73;109557;1251;67895;-75
2023/12/23 09:11:13;;;;;;;3.10;1.00;;;;;;;1.42;100.00;97210.69;109575;1251;60672;-75
2023/12/23 09:13:39;;;;;;;1.20;0.90;;;;;;;1.45;100.00;97209.77;109517;1251;65036;-76
2023/12/23 09:16:06;;;;;;;2.60;0.90;;;;;;;1.51;99.74;97206.80;109555;1250;59725;-75
2023/12/23 09:18:33;;;;;;;3.40;1.30;;;;;;;1.55;99.16;97205.34;109588;1251;59737;-74
2023/12/23 09:20:59;;;;;;;3.90;1.20;;;;;;;1.58;98.46;97209.23;109562;1251;67795;-76
2023/12/23 09:23:26;;;;;;;2.80;1.10;;;;;;;1.60;98.04;97208.23;109547;1251;61023;-76
2023/12/23 09:25:53;;;;;;;4.20;1.20;;;;;;;1.63;98.20;97209.40;109548;1251;65038;-76
2023/12/23 09:28:19;;;;;;;1.90;0.80;;;;;;;1.66;96.76;97208.52;109289;1251;59800;-76
2023/12/23 09:30:47;;;;;;;3.40;1.00;;;;;;;1.67;96.07;97204.79;109603;1251;59709;-76
2023/12/23 09:33:13;;;;;;;2.30;1.40;;;;;;;1.69;95.87;97203.96;109401;1251;65526;-76
2023/12/23 09:35:40;;;;;;;4.40;1.60;;;;;;;1.69;95.29;97201.85;109569;1251;68805;-76
2023/12/23 09:38:08;;;;;;;4.00;1.70;;;;;;;1.71;95.90;97202.66;109526;1251;62756;-76
2023/12/23 09:40:35;;;;;;;4.50;2.00;;;;;;;1.73;95.73;97200.21;109536;1251;59862;-75
2023/12/23 09:43:02;;;;;;;3.40;2.20;;;;;;;1.77;95.99;97196.15;109595;1251;59656;-75
2023/12/23 09:45:30;;;;;;;6.10;2.00;;;;;;;1.79;95.57;97193.05;109583;1251;67785;-74
2023/12/23 09:47:57;;;;;;;5.20;2.40;;;;;;;1.80;95.41;97191.42;109591;1251;61037;-75
2023/12/23 09:50:23;;;;;;;4.40;2.40;;;;;;;1.82;95.52;97189.58;109531;1251;65059;-75
2023/12/23 09:52:52;;;;;;;5.50;3.20;;;;;;;1.83;95.56;97188.98;109545;1251;59858;-75
2023/12/23 09:55:19;;;;;;;4.80;3.00;;;;;;;1.83;95.91;97187.60;109170;1251;59885;-75
2023/12/23 09:57:45;;;;;;;9.20;3.90;;;;;;;1.80;96.02;97184.59;109586;1251;66027;-76
2023/12/23 10:00:12;;;;;;;6.90;3.50;;;;;;;1.77;96.32;97176.73;109581;1251;60993;-75
2023/12/23 10:02:39;;;;;;;9.00;4.30;;;;;;;1.73;96.04;97171.73;109370;1251;64165;-76
2023/12/23 10:05:06;;;;;;;8.20;4.40;;;;;;;1.70;96.84;97165.63;109545;1251;59738;-75
2023/12/23 10:07:33;;;;;;;8.30;4.20;;;;;;;1.68;97.47;97166.09;109636;1251;59792;-76
2023/12/23 10:10:00;;;;;;;14.60;5.20;;;;;;;1.65;97.58;97161.20;109263;1251;67838;-75
2023/12/23 10:12:26;;;;;;;6.20;3.20;;;;;;;1.60;97.53;97164.66;109573;1250;61040;-74
2023/12/23 10:14:53;;;;;;;6.30;3.70;;;;;;;1.57;96.85;97158.67;109513;1251;64996;-74
2023/12/23 10:17:19;;;;;;;7.30;3.60;;;;;;;1.54;96.48;97154.27;109551;1251;59734;-74
2023/12/23 10:19:47;;;;;;;6.10;3.00;;;;;;;1.52;96.43;97153.33;109571;1251;59867;-74
2023/12/23 10:22:16;;;;;;;5.60;3.10;;;;;;;1.51;96.57;97143.43;109547;1251;67840;-76
2023/12/23 10:24:43;;;;;;;6.20;3.30;;;;;;;1.50;96.60;97136.51;108826;1251;1003136;-75
2023/12/23 10:27:11;;;;;;;6.10;3.90;;;;;;;1.50;96.37;97130.36;109564;1251;65291;-76
2023/12/23 10:29:41;;;;;;;9.50;4.30;;;;;;;1.50;96.66;97125.48;109555;1251;59799;-75
2023/12/23 10:32:12;;;;;;;9.50;4.20;;;;;;;1.50;96.28;97124.94;109591;1251;59830;-76
2023/12/23 10:34:44;;;;;;;7.30;3.90;;;;;;;1.49;96.61;97123.42;109562;1251;66879;-76
2023/12/23 10:37:13;;;;;;;6.70;3.70;;;;;;;1.50;97.22;97116.38;109553;1251;59944;-76
2023/12/23 10:39:49;;;;;;;7.10;4.00;;;;;;;1.52;97.17;97116.95;109527;1251;64091;-76
2023/12/23 10:42:20;;;;;;;8.30;4.20;;;;;;;1.55;96.81;97106.48;109527;1251;59822;-76
2023/12/23 10:44:48;;;;;;;5.40;3.00;;;;;;;1.56;96.52;97100.48;109623;1251;60514;-76
2023/12/23 10:47:15;;;;;;;6.90;3.70;;;;;;;1.57;96.01;97098.29;109568;1251;66814;-75
2023/12/23 10:49:45;;;;;;;5.50;2.90;;;;;;;1.59;95.86;97089.45;109541;1252;61113;-75
2023/12/23 10:52:13;;;;;;;4.50;3.30;;;;;;;1.58;95.11;97086.88;108020;1251;1002608;-76
2023/12/23 10:54:39;;;;;;;8.90;4.20;;;;;;;1.59;95.70;97079.61;109602;1251;59841;-76
2023/12/23 10:57:06;;;;;;;9.10;4.70;;;;;;;1.62;95.25;97075.26;109632;1251;59979;-76
2023/12/23 10:59:33;;;;;;;6.40;3.90;;;;;;;1.62;94.56;97071.73;109569;1251;67756;-75
2023/12/23 11:02:11;;;;;;;6.50;4.00;;;;;;;1.63;94.19;97064.50;109637;1251;59800;-75
2023/12/23 11:04:39;;;;;;;5.90;3.00;;;;;;;1.63;93.84;97062.71;108777;1251;1002254;-75
2023/12/23 11:07:08;;;;;;;6.90;3.40;;;;;;;1.63;93.91;97059.61;109645;1251;59724;-74
2023/12/23 11:09:35;;;;;;;6.70;3.40;;;;;;;1.63;94.07;97061.01;109612;1251;59843;-76
2023/12/23 11:12:02;;;;;;;5.80;3.00;;;;;;;1.63;93.73;97059.58;108775;1250;1002194;-74
2023/12/23 11:14:29;;;;;;;6.20;3.10;;;;;;;1.63;93.48;97053.44;109555;1251;60067;-74
2023/12/23 11:16:56;;;;;;;7.40;3.40;;;;;;;1.64;94.07;97046.77;109532;1251;65136;-76
2023/12/23 11:19:24;;;;;;;7.00;3.60;;;;;;;1.64;94.28;97042.04;109524;1252;59826;-75
2023/12/23 11:22:20;;;;;;;4.80;3.00;;;;;;;1.64;94.14;97040.79;109585;1251;59896;-76
2023/12/23 11:24:47;;;;;;;7.60;4.10;;;;;;;1.65;94.25;97034.26;109573;1251;67895;-75